createdAt,value
2023-02-27T00:02:25.435Z,102225.72
2023-02-27T00:04:52.097Z,102226.41
2023-02-27T00:07:18.510Z,102228.66
2023-02-27T00:09:44.834Z,102225.59
2023-02-27T00:12:12.062Z,102221.50
2023-02-27T00:14:38.465Z,102227.69
2023-02-27T00:17:04.806Z,102230.50
2023-02-27T00:19:31.127Z,102225.28
2023-02-27T00:21:57.516Z,102221.91
2023-02-27T00:24:23.883Z,102223.06
2023-02-27T00:26:50.299Z,102216.00
2023-02-27T00:29:16.644Z,102226.16
2023-02-27T00:31:43.082Z,102221.78
2023-02-27T00:34:09.480Z,102220.38
2023-02-27T00:36:35.913Z,102223.06
2023-02-27T00:39:02.384Z,102229.81
2023-02-27T00:41:29.075Z,102228.53
2023-02-27T00:43:55.512Z,102230.38
2023-02-27T00:46:22.301Z,102233.03
2023-02-27T00:48:48.712Z,102231.06
2023-02-27T00:51:15.151Z,102236.53
2023-02-27T00:53:41.542Z,102234.31
2023-02-27T00:56:08.296Z,102237.94
2023-02-27T00:58:34.625Z,102235.72
2023-02-27T01:01:01.054Z,102239.91
2023-02-27T01:03:27.674Z,102231.50
2023-02-27T01:05:54.090Z,102236.53
2023-02-27T01:08:20.729Z,102233.47
2023-02-27T01:10:47.094Z,102232.06
2023-02-27T01:13:13.472Z,102234.16
2023-02-27T01:15:39.837Z,102228.69
2023-02-27T01:18:06.142Z,102234.56
2023-02-27T01:20:32.505Z,102227.53
2023-02-27T01:22:58.831Z,102221.91
2023-02-27T01:25:25.237Z,102223.88
2023-02-27T01:27:51.632Z,102228.38
2023-02-27T01:30:18.336Z,102220.50
2023-02-27T01:32:45.342Z,102214.88
2023-02-27T01:35:11.998Z,102222.75
2023-02-27T01:37:38.868Z,102222.31
2023-02-27T01:40:07.156Z,102218.69
2023-02-27T01:42:33.776Z,102212.47
2023-02-27T01:45:12.288Z,102218.22
2023-02-27T01:47:44.214Z,102201.91
2023-02-27T01:50:11.972Z,102217.50
2023-02-27T01:52:41.160Z,102213.53
2023-02-27T01:55:09.266Z,102211.28
2023-02-27T01:57:36.177Z,102206.06
2023-02-27T02:00:04.301Z,102208.59
2023-02-27T02:02:37.723Z,102205.47
2023-02-27T02:05:06.826Z,102205.22
2023-02-27T02:07:35.232Z,102202.47
2023-02-27T02:10:02.437Z,102206.53
2023-02-27T02:12:33.824Z,102203.03
2023-02-27T02:15:00.222Z,102205.84
2023-02-27T02:17:45.802Z,102209.94
2023-02-27T02:20:12.104Z,102210.34
2023-02-27T02:22:50.859Z,102212.47
2023-02-27T02:25:45.291Z,102208.38
2023-02-27T02:29:01.824Z,102217.25
2023-02-27T02:32:03.670Z,102214.97
2023-02-27T02:34:39.225Z,102213.25
2023-02-27T02:37:14.727Z,102209.88
2023-02-27T02:40:08.335Z,102216.72
2023-02-27T02:42:44.688Z,102216.44
2023-02-27T02:45:14.185Z,102214.47
2023-02-27T02:47:58.769Z,102225.41
2023-02-27T02:50:33.423Z,102223.72
2023-02-27T02:53:21.697Z,102218.31
2023-02-27T02:55:53.350Z,102213.00
2023-02-27T02:58:45.698Z,102213.16
2023-02-27T03:01:21.565Z,102214.00
2023-02-27T03:03:53.503Z,102216.97
2023-02-27T03:06:33.300Z,102219.09
2023-02-27T03:09:19.997Z,102216.88
2023-02-27T03:11:51.064Z,102220.78
2023-02-27T03:14:42.765Z,102228.78
2023-02-27T03:17:18.143Z,102229.78
2023-02-27T03:19:55.683Z,102229.72
2023-02-27T03:22:28.448Z,102224.81
2023-02-27T03:24:58.130Z,102220.44
2023-02-27T03:27:30.399Z,102220.41
2023-02-27T03:30:02.874Z,102232.97
2023-02-27T03:32:38.434Z,102236.22
2023-02-27T03:35:07.349Z,102243.56
2023-02-27T03:38:01.137Z,102237.69
2023-02-27T03:40:51.399Z,102238.53
2023-02-27T03:43:44.812Z,102239.28
2023-02-27T03:46:16.185Z,102246.28
2023-02-27T03:48:44.632Z,102233.69
2023-02-27T03:51:35.407Z,102241.38
2023-02-27T03:54:16.965Z,102238.41
2023-02-27T03:56:52.913Z,102230.84
2023-02-27T03:59:19.410Z,102240.91
2023-02-27T04:01:45.928Z,102239.88
2023-02-27T04:04:16.960Z,102239.16
2023-02-27T04:07:10.889Z,102245.09
2023-02-27T04:10:14.132Z,102245.94
2023-02-27T04:13:01.889Z,102253.78
2023-02-27T04:15:52.851Z,102251.50
2023-02-27T04:18:38.056Z,102255.88
2023-02-27T04:21:10.693Z,102262.44
2023-02-27T04:23:58.690Z,102270.69
2023-02-27T04:26:43.738Z,102271.91
2023-02-27T04:29:31.186Z,102274.44
2023-02-27T04:32:04.603Z,102276.06
2023-02-27T04:34:31.035Z,102268.53
2023-02-27T04:37:08.406Z,102260.66
2023-02-27T04:39:41.943Z,102271.72
2023-02-27T04:42:19.334Z,102273.34
2023-02-27T04:44:48.069Z,102269.00
2023-02-27T04:47:16.798Z,102268.34
2023-02-27T04:50:16.712Z,102271.97
2023-02-27T04:52:49.978Z,102268.59
2023-02-27T04:55:28.058Z,102270.47
2023-02-27T04:58:02.985Z,102269.06
2023-02-27T05:00:32.929Z,102273.91
2023-02-27T05:03:09.273Z,102283.47
2023-02-27T05:05:38.169Z,102290.69
2023-02-27T05:08:16.680Z,102291.13
2023-02-27T05:10:46.756Z,102288.94
2023-02-27T05:13:18.719Z,102288.22
2023-02-27T05:16:33.081Z,102288.16
2023-02-27T05:19:01.447Z,102290.59
2023-02-27T05:21:34.260Z,102294.97
2023-02-27T05:24:14.023Z,102300.81
2023-02-27T05:27:01.461Z,102301.25
2023-02-27T05:29:33.161Z,102302.69
2023-02-27T05:32:34.272Z,102301.53
2023-02-27T05:35:09.677Z,102307.88
2023-02-27T05:37:56.636Z,102305.25
2023-02-27T05:40:27.553Z,102307.91
2023-02-27T05:43:05.575Z,102311.78
2023-02-27T05:45:34.708Z,102313.06
2023-02-27T05:48:07.496Z,102309.03
2023-02-27T05:50:36.528Z,102306.69
2023-02-27T05:53:09.198Z,102307.28
2023-02-27T05:55:39.372Z,102310.53
2023-02-27T05:58:08.527Z,102317.34
2023-02-27T06:00:43.626Z,102321.97
2023-02-27T06:03:10.134Z,102320.53
2023-02-27T06:05:38.376Z,102317.63
2023-02-27T06:08:04.748Z,102325.81
2023-02-27T06:10:31.362Z,102322.91
2023-02-27T06:12:57.743Z,102321.66
2023-02-27T06:15:24.143Z,102329.81
2023-02-27T06:17:50.558Z,102331.69
2023-02-27T06:20:17.223Z,102336.78
2023-02-27T06:22:43.644Z,102347.63
2023-02-27T06:25:10.091Z,102351.63
2023-02-27T06:27:36.706Z,102351.84
2023-02-27T06:30:03.518Z,102353.81
2023-02-27T06:32:30.165Z,102350.91
2023-02-27T06:34:56.629Z,102342.75
2023-02-27T06:37:23.144Z,102348.84
2023-02-27T06:39:49.575Z,102351.34
2023-02-27T06:42:16.443Z,102348.06
2023-02-27T06:44:42.767Z,102347.09
2023-02-27T06:47:09.455Z,102342.94
2023-02-27T06:49:36.043Z,102343.31
2023-02-27T06:52:02.375Z,102333.13
2023-02-27T06:54:28.746Z,102351.16
2023-02-27T06:56:55.110Z,102344.69
2023-02-27T06:59:21.725Z,102341.69
2023-02-27T07:01:48.423Z,102352.34
2023-02-27T07:04:15.913Z,102358.72
2023-02-27T07:07:34.017Z,102359.91
2023-02-27T07:09:28.688Z,102359.50
2023-02-27T07:11:55.144Z,102355.06
2023-02-27T07:14:21.853Z,102361.88
2023-02-27T07:16:50.893Z,102368.38
2023-02-27T07:19:18.564Z,102371.81
2023-02-27T07:21:45.131Z,102364.88
2023-02-27T07:24:11.851Z,102368.69
2023-02-27T07:26:38.319Z,102380.13
2023-02-27T07:29:05.266Z,102378.78
2023-02-27T07:31:32.290Z,102383.31
2023-02-27T07:33:58.796Z,102388.13
2023-02-27T07:36:25.512Z,102392.41
2023-02-27T07:38:51.958Z,102396.66
2023-02-27T07:41:29.979Z,102394.19
2023-02-27T07:43:57.286Z,102399.69
2023-02-27T07:46:24.797Z,102400.81
2023-02-27T07:48:51.209Z,102402.69
2023-02-27T07:51:18.578Z,102404.09
2023-02-27T07:53:44.987Z,102402.75
2023-02-27T07:56:11.515Z,102406.69
2023-02-27T07:58:37.954Z,102404.75
2023-02-27T08:01:04.466Z,102404.91
2023-02-27T08:03:30.781Z,102406.72
2023-02-27T08:05:57.225Z,102408.13
2023-02-27T08:08:23.839Z,102408.66
2023-02-27T08:10:50.460Z,102406.66
2023-02-27T08:13:18.025Z,102409.59
2023-02-27T08:15:47.352Z,102405.47
2023-02-27T08:18:13.775Z,102401.50
2023-02-27T08:20:40.157Z,102405.16
2023-02-27T08:23:06.977Z,102401.84
2023-02-27T08:25:33.539Z,102398.44
2023-02-27T08:27:59.927Z,102403.56
2023-02-27T08:30:26.257Z,102397.63
2023-02-27T08:32:52.846Z,102403.78
2023-02-27T08:35:19.179Z,102408.22
2023-02-27T08:37:45.558Z,102402.91
2023-02-27T08:40:12.270Z,102400.03
2023-02-27T08:42:38.803Z,102408.72
2023-02-27T08:45:05.574Z,102406.66
2023-02-27T08:47:32.090Z,102404.72
2023-02-27T08:49:58.436Z,102408.56
2023-02-27T08:52:25.144Z,102398.59
2023-02-27T08:54:51.841Z,102400.75
2023-02-27T08:57:18.198Z,102384.63
2023-02-27T08:59:44.684Z,102400.56
2023-02-27T09:02:11.607Z,102387.63
2023-02-27T09:04:37.963Z,102391.72
2023-02-27T09:07:04.400Z,102390.53
2023-02-27T09:09:30.930Z,102402.25
2023-02-27T09:11:57.573Z,102402.38
2023-02-27T09:14:24.271Z,102397.38
2023-02-27T09:16:50.645Z,102407.53
2023-02-27T09:19:17.260Z,102401.38
2023-02-27T09:21:43.767Z,102401.53
2023-02-27T09:24:19.876Z,102397.50
2023-02-27T09:26:47.482Z,102402.72
2023-02-27T09:29:14.396Z,102406.31
2023-02-27T09:31:40.825Z,102407.00
2023-02-27T09:34:07.611Z,102401.97
2023-02-27T09:36:34.070Z,102406.69
2023-02-27T09:39:00.525Z,102409.72
2023-02-27T09:41:57.617Z,102409.19
2023-02-27T09:44:45.136Z,102394.56
2023-02-27T09:47:16.831Z,102391.47
2023-02-27T09:50:11.797Z,102396.56
2023-02-27T09:52:39.439Z,102389.84
2023-02-27T09:55:15.694Z,102395.91
2023-02-27T09:58:01.674Z,102405.66
2023-02-27T10:00:38.133Z,102407.31
2023-02-27T10:03:04.524Z,102408.34
2023-02-27T10:05:49.090Z,102399.97
2023-02-27T10:08:32.725Z,102410.22
2023-02-27T10:11:04.834Z,102404.31
2023-02-27T10:13:49.766Z,102407.69
2023-02-27T10:16:20.733Z,102407.69
2023-02-27T10:18:55.669Z,102406.69
2023-02-27T10:21:33.411Z,102407.84
2023-02-27T10:24:23.920Z,102403.97
2023-02-27T10:26:54.794Z,102416.13
2023-02-27T10:29:40.047Z,102405.34
2023-02-27T10:32:14.874Z,102411.72
2023-02-27T10:34:44.181Z,102413.06
2023-02-27T10:37:15.163Z,102410.41
2023-02-27T10:39:47.545Z,102408.03
2023-02-27T10:42:16.254Z,102401.44
2023-02-27T10:44:42.754Z,102408.34
2023-02-27T10:47:15.425Z,102403.97
2023-02-27T10:49:43.257Z,102414.41
2023-02-27T10:52:13.933Z,102406.81
2023-02-27T10:54:41.731Z,102398.59
2023-02-27T10:57:21.802Z,102402.28
2023-02-27T11:00:26.438Z,102407.63
2023-02-27T11:02:53.012Z,102409.97
2023-02-27T11:05:26.413Z,102412.56
2023-02-27T11:07:52.993Z,102397.03
2023-02-27T11:10:28.771Z,102396.84
2023-02-27T11:13:03.316Z,102389.41
2023-02-27T11:15:32.668Z,102389.47
2023-02-27T11:18:31.164Z,102379.53
2023-02-27T11:21:20.000Z,102387.00
2023-02-27T11:23:51.805Z,102387.13
2023-02-27T11:26:28.134Z,102374.66
2023-02-27T11:29:11.567Z,102377.16
2023-02-27T11:31:39.639Z,102369.19
2023-02-27T11:34:08.261Z,102358.66
2023-02-27T11:36:46.857Z,102363.06
2023-02-27T11:39:34.677Z,102356.75
2023-02-27T11:42:23.626Z,102345.84
2023-02-27T11:44:56.270Z,102359.94
2023-02-27T11:47:31.386Z,102359.16
2023-02-27T11:50:25.779Z,102346.81
2023-02-27T11:53:29.751Z,102339.41
2023-02-27T11:55:59.900Z,102344.91
2023-02-27T11:58:30.193Z,102339.63
2023-02-27T12:01:08.094Z,102333.16
2023-02-27T12:03:53.377Z,102321.53
2023-02-27T12:06:26.418Z,102321.03
2023-02-27T12:08:59.098Z,102310.84
2023-02-27T12:11:32.836Z,102306.44
2023-02-27T12:14:14.509Z,102303.28
2023-02-27T12:16:46.332Z,102298.72
2023-02-27T12:19:21.246Z,102291.81
2023-02-27T12:21:52.104Z,102288.50
2023-02-27T12:24:25.633Z,102289.72
2023-02-27T12:27:15.910Z,102288.34
2023-02-27T12:29:50.412Z,102285.63
2023-02-27T12:32:26.078Z,102286.84
2023-02-27T12:35:25.994Z,102281.34
2023-02-27T12:37:52.906Z,102279.03
2023-02-27T12:40:25.579Z,102273.75
2023-02-27T12:43:11.554Z,102271.91
2023-02-27T12:45:51.832Z,102278.06
2023-02-27T12:48:44.383Z,102277.84
2023-02-27T12:51:35.172Z,102274.47
2023-02-27T12:54:26.867Z,102269.06
2023-02-27T12:57:20.578Z,102268.47
2023-02-27T12:59:53.611Z,102274.09
2023-02-27T13:02:32.271Z,102266.75
2023-02-27T13:05:09.472Z,102269.22
2023-02-27T13:07:48.828Z,102269.50
2023-02-27T13:10:31.730Z,102264.28
2023-02-27T13:13:09.666Z,102270.81
2023-02-27T13:15:50.969Z,102247.97
2023-02-27T13:18:40.194Z,102253.59
2023-02-27T13:21:12.679Z,102259.28
2023-02-27T13:24:23.968Z,102249.88
2023-02-27T13:26:57.569Z,102260.19
2023-02-27T13:29:37.098Z,102254.53
2023-02-27T13:32:41.342Z,102251.06
2023-02-27T13:35:29.164Z,102256.34
2023-02-27T13:38:02.364Z,102244.78
2023-02-27T13:40:40.681Z,102248.78
2023-02-27T13:43:51.729Z,102251.50
2023-02-27T13:46:32.859Z,102260.31
2023-02-27T13:49:05.088Z,102250.78
2023-02-27T13:51:38.301Z,102246.06
2023-02-27T13:54:07.645Z,102258.97
2023-02-27T13:56:34.159Z,102260.53
2023-02-27T13:59:28.992Z,102243.69
2023-02-27T14:02:10.683Z,102249.22
2023-02-27T14:04:54.944Z,102246.78
2023-02-27T14:07:24.094Z,102249.50
2023-02-27T14:09:59.878Z,102257.25
2023-02-27T14:12:39.165Z,102251.59
2023-02-27T14:15:22.721Z,102252.00
2023-02-27T14:17:59.625Z,102251.72
2023-02-27T14:20:32.550Z,102245.41
2023-02-27T14:23:17.120Z,102240.84
2023-02-27T14:25:56.757Z,102243.34
2023-02-27T14:28:31.291Z,102231.88
2023-02-27T14:31:01.084Z,102245.06
2023-02-27T14:33:40.646Z,102244.44
2023-02-27T14:36:20.121Z,102228.78
2023-02-27T14:38:47.320Z,102245.75
2023-02-27T14:41:22.182Z,102241.75
2023-02-27T14:43:56.770Z,102251.75
2023-02-27T14:46:25.200Z,102248.38
2023-02-27T14:48:57.406Z,102247.22
2023-02-27T14:51:25.232Z,102235.75
2023-02-27T14:54:19.404Z,102236.78
2023-02-27T14:57:06.484Z,102237.13
2023-02-27T14:59:41.639Z,102234.47
2023-02-27T15:02:30.620Z,102236.75
2023-02-27T15:05:03.458Z,102241.56
2023-02-27T15:07:33.208Z,102244.97
2023-02-27T15:10:04.405Z,102246.28
2023-02-27T15:12:32.242Z,102240.22
2023-02-27T15:15:02.238Z,102253.28
2023-02-27T15:17:50.862Z,102252.63
2023-02-27T15:20:32.913Z,102258.06
2023-02-27T15:23:01.492Z,102251.63
2023-02-27T15:25:34.416Z,102251.81
2023-02-27T15:28:04.047Z,102255.84
2023-02-27T15:30:31.143Z,102261.03
2023-02-27T15:32:59.230Z,102261.84
2023-02-27T15:35:35.065Z,102264.63
2023-02-27T15:38:02.482Z,102264.38
2023-02-27T15:40:31.910Z,102263.09
2023-02-27T15:43:00.029Z,102262.94
2023-02-27T15:45:34.480Z,102271.94
2023-02-27T15:48:01.752Z,102271.06
2023-02-27T15:50:36.881Z,102273.66
2023-02-27T15:53:05.490Z,102273.91
2023-02-27T15:55:35.389Z,102287.75
2023-02-27T15:58:03.719Z,102288.22
2023-02-27T16:00:34.480Z,102290.25
2023-02-27T16:03:01.291Z,102285.94
2023-02-27T16:05:33.694Z,102282.09
2023-02-27T16:08:02.457Z,102290.75
2023-02-27T16:10:35.461Z,102291.81
2023-02-27T16:13:25.600Z,102288.94
2023-02-27T16:16:06.866Z,102295.47
2023-02-27T16:18:35.302Z,102299.13
2023-02-27T16:21:12.955Z,102302.69
2023-02-27T16:23:39.851Z,102305.59
2023-02-27T16:26:08.941Z,102308.78
2023-02-27T16:29:03.810Z,102314.88
2023-02-27T16:31:40.778Z,102307.84
2023-02-27T16:34:13.090Z,102318.44
2023-02-27T16:36:53.257Z,102315.59
2023-02-27T16:39:19.728Z,102320.97
2023-02-27T16:41:46.190Z,102319.00
2023-02-27T16:44:12.566Z,102314.69
2023-02-27T16:46:39.050Z,102321.63
2023-02-27T16:49:19.178Z,102317.22
2023-02-27T16:51:46.700Z,102321.09
2023-02-27T16:54:13.951Z,102332.72
2023-02-27T16:56:40.908Z,102326.81
2023-02-27T16:59:07.699Z,102337.31
2023-02-27T17:01:34.756Z,102335.78
2023-02-27T17:04:01.390Z,102339.69
2023-02-27T17:06:28.369Z,102340.69
2023-02-27T17:08:55.931Z,102347.09
2023-02-27T17:11:22.332Z,102345.09
2023-02-27T17:13:48.720Z,102351.31
2023-02-27T17:16:15.861Z,102354.53
2023-02-27T17:18:42.260Z,102356.56
2023-02-27T17:21:08.600Z,102357.56
2023-02-27T17:23:35.305Z,102368.66
2023-02-27T17:26:01.793Z,102367.66
2023-02-27T17:28:28.178Z,102371.53
2023-02-27T17:30:54.744Z,102371.84
2023-02-27T17:33:21.168Z,102379.09
2023-02-27T17:35:48.269Z,102373.22
2023-02-27T17:38:14.619Z,102380.09
2023-02-27T17:40:41.068Z,102394.22
2023-02-27T17:43:07.638Z,102387.84
2023-02-27T17:45:34.007Z,102390.50
2023-02-27T17:48:00.620Z,102390.50
2023-02-27T17:50:27.098Z,102394.59
2023-02-27T17:52:53.532Z,102397.44
2023-02-27T17:55:20.093Z,102391.88
2023-02-27T17:57:46.444Z,102401.28
2023-02-27T18:00:15.179Z,102396.41
2023-02-27T18:02:44.200Z,102405.16
2023-02-27T18:05:10.828Z,102403.31
2023-02-27T18:07:37.230Z,102407.69
2023-02-27T18:10:05.435Z,102413.22
2023-02-27T18:12:32.461Z,102409.03
2023-02-27T18:14:58.850Z,102411.72
2023-02-27T18:17:25.226Z,102412.22
2023-02-27T18:19:51.650Z,102411.41
2023-02-27T18:22:18.004Z,102411.72
2023-02-27T18:24:44.425Z,102414.72
2023-02-27T18:27:11.007Z,102415.25
2023-02-27T18:29:37.359Z,102410.88
2023-02-27T18:32:04.058Z,102410.53
2023-02-27T18:34:30.475Z,102410.00
2023-02-27T18:36:58.255Z,102405.97
2023-02-27T18:39:24.736Z,102410.50
2023-02-27T18:41:51.121Z,102405.56
2023-02-27T18:44:17.491Z,102396.84
2023-02-27T18:46:43.969Z,102393.59
2023-02-27T18:49:10.424Z,102399.81
2023-02-27T18:51:37.627Z,102402.19
2023-02-27T18:54:05.130Z,102396.78
2023-02-27T18:56:32.837Z,102389.97
2023-02-27T18:59:04.957Z,102396.38
2023-02-27T19:01:34.537Z,102406.44
2023-02-27T19:04:05.945Z,102408.47
2023-02-27T19:06:34.851Z,102405.41
2023-02-27T19:09:04.047Z,102403.19
2023-02-27T19:11:35.568Z,102403.34
2023-02-27T19:14:04.849Z,102400.31
2023-02-27T19:16:32.189Z,102408.09
2023-02-27T19:19:00.436Z,102399.91
2023-02-27T19:21:27.639Z,102399.38
2023-02-27T19:23:54.791Z,102405.06
2023-02-27T19:26:21.990Z,102389.91
2023-02-27T19:28:53.770Z,102388.03
2023-02-27T19:31:22.140Z,102391.94
2023-02-27T19:36:46.623Z,102398.31
2023-02-27T19:39:13.089Z,102395.09
2023-02-27T19:41:39.511Z,102391.09
2023-02-27T19:44:06.073Z,102398.66
2023-02-27T19:46:34.239Z,102393.94
2023-02-27T19:49:04.248Z,102394.84
2023-02-27T19:51:30.679Z,102397.91
2023-02-27T19:53:58.564Z,102396.94
2023-02-27T19:56:27.169Z,102403.44
2023-02-27T19:58:54.264Z,102408.19
2023-02-27T20:01:26.465Z,102404.06
2023-02-27T20:03:53.142Z,102404.56
2023-02-27T20:06:23.026Z,102392.16
2023-02-27T20:08:50.459Z,102405.59
2023-02-27T20:11:17.449Z,102408.06
2023-02-27T20:13:44.472Z,102412.97
2023-02-27T20:16:15.027Z,102409.06
2023-02-27T20:18:42.610Z,102410.47
2023-02-27T20:21:18.478Z,102410.53
2023-02-27T20:23:46.397Z,102404.06
2023-02-27T20:26:20.602Z,102407.22
2023-02-27T20:28:48.624Z,102408.69
2023-02-27T20:31:18.708Z,102414.53
2023-02-27T20:33:46.357Z,102415.38
2023-02-27T20:36:13.324Z,102410.28
2023-02-27T20:38:40.972Z,102417.78
2023-02-27T20:41:16.328Z,102416.63
2023-02-27T20:43:43.944Z,102419.31
2023-02-27T20:46:13.093Z,102425.56
2023-02-27T20:48:39.945Z,102419.84
2023-02-27T20:51:13.538Z,102418.28
2023-02-27T20:53:41.742Z,102419.44
2023-02-27T20:56:09.208Z,102426.78
2023-02-27T20:58:36.688Z,102425.03
2023-02-27T21:01:08.208Z,102418.41
2023-02-27T21:03:38.585Z,102425.50
2023-02-27T21:06:06.751Z,102415.31
2023-02-27T21:08:35.550Z,102413.66
2023-02-27T21:11:07.214Z,102418.84
2023-02-27T21:13:33.564Z,102416.34
2023-02-27T21:16:00.417Z,102426.03
2023-02-27T21:18:26.883Z,102419.59
2023-02-27T21:20:53.388Z,102420.28
2023-02-27T21:23:19.711Z,102417.38
2023-02-27T21:25:46.067Z,102417.25
2023-02-27T21:28:14.138Z,102418.69
2023-02-27T21:30:41.302Z,102413.66
2023-02-27T21:33:07.658Z,102418.31
2023-02-27T21:35:34.075Z,102426.28
2023-02-27T21:38:01.428Z,102424.06
2023-02-27T21:40:28.108Z,102424.97
2023-02-27T21:42:54.436Z,102421.53
2023-02-27T21:45:20.996Z,102418.41
2023-02-27T21:47:47.363Z,102420.22
2023-02-27T21:50:17.119Z,102415.63
2023-02-27T21:52:44.316Z,102421.91
2023-02-27T21:55:12.139Z,102424.50
2023-02-27T21:57:39.787Z,102429.25
2023-02-27T22:00:11.051Z,102434.38
2023-02-27T22:02:39.164Z,102430.56
2023-02-27T22:05:06.872Z,102426.25
2023-02-27T22:07:33.239Z,102426.50
2023-02-27T22:09:59.625Z,102421.50
2023-02-27T22:12:26.898Z,102426.31
2023-02-27T22:14:53.270Z,102430.81
2023-02-27T22:17:19.583Z,102417.38
2023-02-27T22:19:45.897Z,102416.66
2023-02-27T22:22:12.338Z,102427.00
2023-02-27T22:24:38.735Z,102420.94
2023-02-27T22:27:05.324Z,102426.13
2023-02-27T22:29:31.788Z,102426.13
2023-02-27T22:31:58.193Z,102427.88
2023-02-27T22:34:24.546Z,102429.56
2023-02-27T22:36:52.567Z,102438.91
2023-02-27T22:39:19.587Z,102441.72
2023-02-27T22:41:46.245Z,102441.69
2023-02-27T22:44:14.417Z,102443.38
2023-02-27T22:46:44.083Z,102450.47
2023-02-27T22:49:14.225Z,102455.97
2023-02-27T22:51:41.161Z,102444.59
2023-02-27T22:54:10.097Z,102450.78
2023-02-27T22:56:36.704Z,102453.59
2023-02-27T22:59:04.584Z,102456.25
2023-02-27T23:01:33.232Z,102454.56
2023-02-27T23:04:03.016Z,102462.50
2023-02-27T23:06:32.119Z,102458.31
2023-02-27T23:08:59.464Z,102452.25
2023-02-27T23:11:26.497Z,102462.72
2023-02-27T23:13:53.077Z,102456.47
2023-02-27T23:16:20.012Z,102459.84
2023-02-27T23:18:47.911Z,102461.56
2023-02-27T23:21:20.162Z,102460.28
2023-02-27T23:23:47.653Z,102464.38
2023-02-27T23:26:14.458Z,102458.47
2023-02-27T23:28:41.538Z,102460.59
2023-02-27T23:31:08.813Z,102467.25
2023-02-27T23:33:35.509Z,102461.03
2023-02-27T23:36:02.261Z,102464.84
2023-02-27T23:38:29.358Z,102470.88
2023-02-27T23:40:56.246Z,102467.50
2023-02-27T23:43:23.287Z,102474.00
2023-02-27T23:45:49.966Z,102474.59
2023-02-27T23:48:16.373Z,102476.84
2023-02-27T23:50:44.529Z,102476.56
2023-02-27T23:53:13.487Z,102481.34
2023-02-27T23:55:40.581Z,102484.44
2023-02-27T23:58:09.686Z,102484.72
